createdAt,value
2023-11-25T00:00:48.410Z,1001.14
2023-11-25T00:01:48.532Z,1001.13
2023-11-25T00:02:48.504Z,1001.10
2023-11-25T00:03:48.526Z,1001.03
2023-11-25T00:04:48.564Z,1001.05
2023-11-25T00:05:48.631Z,1001.03
2023-11-25T00:06:48.656Z,1001.01
2023-11-25T00:07:48.703Z,1001.03
2023-11-25T00:08:48.752Z,1001.03
2023-11-25T00:09:49.003Z,1001.02
2023-11-25T00:10:48.911Z,1000.99
2023-11-25T00:11:48.904Z,1000.97
2023-11-25T00:12:48.941Z,1000.99
2023-11-25T00:13:48.998Z,1000.98
2023-11-25T00:14:49.058Z,1001.01
2023-11-25T00:15:49.092Z,1001.04
2023-11-25T00:16:49.247Z,1001.01
2023-11-25T00:17:49.217Z,1001.05
2023-11-25T00:18:49.323Z,1000.99
2023-11-25T00:19:49.279Z,1001.03
2023-11-25T00:20:49.330Z,1001.08
2023-11-25T00:21:49.398Z,1001.07
2023-11-25T00:22:49.425Z,1001.13
2023-11-25T00:23:49.472Z,1001.15
2023-11-25T00:24:49.571Z,1001.16
2023-11-25T00:25:49.604Z,1001.16
2023-11-25T00:26:49.612Z,1001.20
2023-11-25T00:27:49.663Z,1001.17
2023-11-25T00:28:49.711Z,1001.21
2023-11-25T00:29:49.756Z,1001.21
2023-11-25T00:30:49.803Z,1001.21
2023-11-25T00:31:49.852Z,1001.25
2023-11-25T00:32:49.923Z,1001.26
2023-11-25T00:33:49.969Z,1001.29
2023-11-25T00:34:50.067Z,1001.31
2023-11-25T00:35:50.044Z,1001.39
2023-11-25T00:36:50.089Z,1001.40
2023-11-25T00:37:50.159Z,1001.36
2023-11-25T00:38:50.186Z,1001.34
2023-11-25T00:39:50.237Z,1001.35
2023-11-25T00:40:50.396Z,1001.34
2023-11-25T00:41:50.328Z,1001.35
2023-11-25T00:42:50.410Z,1001.38
2023-11-25T00:43:50.429Z,1001.35
2023-11-25T00:45:33.247Z,1001.40
2023-11-25T00:47:33.402Z,1001.43
2023-11-25T00:48:33.290Z,1001.38
2023-11-25T00:49:33.359Z,1001.43
2023-11-25T00:50:33.383Z,1001.43
2023-11-25T00:51:33.421Z,1001.44
2023-11-25T00:52:33.503Z,1001.47
2023-11-25T00:53:33.541Z,1001.46
2023-11-25T00:54:33.563Z,1001.48
2023-11-25T00:55:33.651Z,1001.50
2023-11-25T00:56:33.660Z,1001.49
2023-11-25T00:57:33.707Z,1001.50
2023-11-25T00:58:33.815Z,1001.51
2023-11-25T00:59:33.809Z,1001.44
2023-11-25T01:00:33.859Z,1001.49
2023-11-25T01:01:35.270Z,1001.47
2023-11-25T01:02:34.328Z,1001.46
2023-11-25T01:03:34.072Z,1001.49
2023-11-25T01:04:34.065Z,1001.47
2023-11-25T01:05:34.081Z,1001.47
2023-11-25T01:06:34.130Z,1001.47
2023-11-25T01:07:34.206Z,1001.50
2023-11-25T01:08:34.234Z,1001.50
2023-11-25T01:09:34.294Z,1001.52
2023-11-25T01:10:34.333Z,1001.55
2023-11-25T01:11:34.364Z,1001.57
2023-11-25T01:12:34.452Z,1001.58
2023-11-25T01:13:34.483Z,1001.56
2023-11-25T01:14:34.508Z,1001.59
2023-11-25T01:15:34.596Z,1001.58
2023-11-25T01:16:34.666Z,1001.57
2023-11-25T01:17:34.690Z,1001.59
2023-11-25T01:18:34.693Z,1001.62
2023-11-25T01:19:34.821Z,1001.66
2023-11-25T01:20:34.850Z,1001.65
2023-11-25T01:21:34.859Z,1001.68
2023-11-25T01:22:34.914Z,1001.67
2023-11-25T01:23:34.931Z,1001.66
2023-11-25T01:24:34.977Z,1001.69
2023-11-25T01:25:35.131Z,1001.74
2023-11-25T01:26:35.072Z,1001.78
2023-11-25T01:27:35.132Z,1001.80
2023-11-25T01:28:35.201Z,1001.80
2023-11-25T01:29:35.217Z,1001.83
2023-11-25T01:30:35.267Z,1001.93
2023-11-25T01:31:35.372Z,1001.93
2023-11-25T01:32:35.423Z,1001.96
2023-11-25T01:33:35.396Z,1001.85
2023-11-25T01:34:35.498Z,1001.88
2023-11-25T01:35:35.490Z,1001.85
2023-11-25T01:36:35.544Z,1001.92
2023-11-25T01:37:35.669Z,1001.91
2023-11-25T01:38:35.628Z,1001.92
2023-11-25T01:39:35.676Z,1001.96
2023-11-25T01:40:35.751Z,1001.89
2023-11-25T01:41:35.794Z,1001.95
2023-11-25T01:42:35.849Z,1001.95
2023-11-25T01:43:35.896Z,1001.93
2023-11-25T01:44:35.908Z,1002.03
2023-11-25T01:45:35.956Z,1002.02
2023-11-25T01:46:36.122Z,1001.97
2023-11-25T01:47:36.091Z,1002.00
2023-11-25T01:48:36.111Z,1002.01
2023-11-25T01:49:36.220Z,1001.99
2023-11-25T01:50:36.190Z,1002.02
2023-11-25T01:51:36.239Z,1002.03
2023-11-25T01:52:36.377Z,1002.01
2023-11-25T01:53:36.332Z,1002.03
2023-11-25T01:54:36.385Z,1002.04
2023-11-25T01:55:36.478Z,1002.02
2023-11-25T01:56:36.474Z,1002.10
2023-11-25T01:57:38.147Z,1002.07
2023-11-25T01:58:36.586Z,1002.15
2023-11-25T01:59:36.613Z,1002.16
2023-11-25T02:00:36.660Z,1002.17
2023-11-25T02:01:36.810Z,1002.09
2023-11-25T02:02:36.957Z,1002.12
2023-11-25T02:03:36.835Z,1002.13
2023-11-25T02:04:36.910Z,1002.13
2023-11-25T02:05:36.904Z,1002.15
2023-11-25T02:06:36.947Z,1002.19
2023-11-25T02:07:37.019Z,1002.21
2023-11-25T02:08:37.044Z,1002.13
2023-11-25T02:09:37.081Z,1002.13
2023-11-25T02:10:37.184Z,1002.16
2023-11-25T02:11:37.173Z,1002.17
2023-11-25T02:12:37.228Z,1002.15
2023-11-25T02:13:37.356Z,1002.17
2023-11-25T02:14:37.325Z,1002.18
2023-11-25T02:15:37.361Z,1002.19
2023-11-25T02:16:37.513Z,1002.25
2023-11-25T02:17:37.496Z,1002.28
2023-11-25T02:18:37.499Z,1002.26
2023-11-25T02:19:37.611Z,1002.27
2023-11-25T02:20:37.594Z,1002.29
2023-11-25T02:21:37.643Z,1002.29
2023-11-25T02:22:37.875Z,1002.28
2023-11-25T02:23:37.821Z,1002.32
2023-11-25T02:24:37.787Z,1002.34
2023-11-25T02:25:37.964Z,1002.39
2023-11-25T02:26:38.011Z,1002.41
2023-11-25T02:27:37.919Z,1002.41
2023-11-25T02:28:37.986Z,1002.41
2023-11-25T02:29:38.040Z,1002.43
2023-11-25T02:30:38.071Z,1002.44
2023-11-25T02:31:38.166Z,1002.44
2023-11-25T02:32:38.208Z,1002.44
2023-11-25T02:33:38.202Z,1002.44
2023-11-25T02:34:38.273Z,1002.41
2023-11-25T02:35:38.302Z,1002.36
2023-11-25T02:36:38.346Z,1002.32
2023-11-25T02:37:38.413Z,1002.39
2023-11-25T02:38:38.444Z,1002.36
2023-11-25T02:39:38.489Z,1002.30
2023-11-25T02:40:38.586Z,1002.30
2023-11-25T02:41:38.578Z,1002.28
2023-11-25T02:42:38.645Z,1002.30
2023-11-25T02:43:38.723Z,1002.27
2023-11-25T02:44:38.805Z,1002.31
2023-11-25T02:45:38.782Z,1002.30
2023-11-25T02:46:38.833Z,1002.31
2023-11-25T02:47:38.932Z,1002.30
2023-11-25T02:48:38.965Z,1002.27
2023-11-25T02:49:38.983Z,1002.30
2023-11-25T02:50:39.005Z,1002.28
2023-11-25T02:51:39.046Z,1002.30
2023-11-25T02:52:39.114Z,1002.27
2023-11-25T02:53:39.153Z,1002.27
2023-11-25T02:54:39.187Z,1002.24
2023-11-25T02:55:39.357Z,1002.27
2023-11-25T02:56:39.278Z,1002.27
2023-11-25T02:57:39.332Z,1002.23
2023-11-25T02:58:39.467Z,1002.24
2023-11-25T02:59:39.419Z,1002.24
2023-11-25T03:00:39.466Z,1002.26
2023-11-25T03:01:39.624Z,1002.22
2023-11-25T03:02:39.643Z,1002.25
2023-11-25T03:03:39.622Z,1002.28
2023-11-25T03:04:39.695Z,1002.25
2023-11-25T03:05:39.699Z,1002.29
2023-11-25T03:06:39.749Z,1002.28
2023-11-25T03:07:39.841Z,1002.32
2023-11-25T03:08:39.841Z,1002.42
2023-11-25T03:09:39.891Z,1002.38
2023-11-25T03:10:40.000Z,1002.41
2023-11-25T03:11:39.978Z,1002.41
2023-11-25T03:12:40.036Z,1002.38
2023-11-25T03:13:40.097Z,1002.37
2023-11-25T03:14:40.120Z,1002.33
2023-11-25T03:15:40.166Z,1002.31
2023-11-25T03:16:40.376Z,1002.29
2023-11-25T03:17:40.349Z,1002.22
2023-11-25T03:18:40.311Z,1002.29
2023-11-25T03:19:40.429Z,1002.25
2023-11-25T03:20:40.406Z,1002.26
2023-11-25T03:21:40.450Z,1002.25
2023-11-25T03:22:40.503Z,1002.26
2023-11-25T03:23:40.547Z,1002.32
2023-11-25T03:24:40.586Z,1002.36
2023-11-25T03:25:41.115Z,1002.35
2023-11-25T03:26:40.740Z,1002.38
2023-11-25T03:27:40.740Z,1002.40
2023-11-25T03:28:40.790Z,1002.42
2023-11-25T03:29:40.821Z,1002.50
2023-11-25T03:30:40.872Z,1002.47
2023-11-25T03:31:40.973Z,1002.44
2023-11-25T03:32:41.041Z,1002.42
2023-11-25T03:33:41.040Z,1002.44
2023-11-25T03:34:41.162Z,1002.41
2023-11-25T03:35:41.106Z,1002.44
2023-11-25T03:36:41.146Z,1002.56
2023-11-25T03:37:41.216Z,1002.58
2023-11-25T03:38:41.252Z,1002.58
2023-11-25T03:39:41.291Z,1002.61
2023-11-25T03:40:41.389Z,1002.66
2023-11-25T03:41:41.385Z,1002.59
2023-11-25T03:42:41.428Z,1002.57
2023-11-25T03:43:41.531Z,1002.55
2023-11-25T03:44:41.521Z,1002.53
2023-11-25T03:45:41.568Z,1002.53
2023-11-25T03:46:41.717Z,1002.55
2023-11-25T03:47:41.718Z,1002.57
2023-11-25T03:48:41.717Z,1002.54
2023-11-25T03:49:41.813Z,1002.55
2023-11-25T03:50:41.803Z,1002.57
2023-11-25T03:51:41.873Z,1002.57
2023-11-25T03:52:42.050Z,1002.58
2023-11-25T03:53:41.951Z,1002.53
2023-11-25T03:54:41.992Z,1002.50
2023-11-25T03:55:42.104Z,1002.45
2023-11-25T03:56:42.097Z,1002.43
2023-11-25T03:57:42.128Z,1002.45
2023-11-25T03:58:42.215Z,1002.39
2023-11-25T03:59:42.222Z,1002.38
2023-11-25T04:00:42.269Z,1002.36
2023-11-25T04:01:42.492Z,1002.34
2023-11-25T04:02:42.390Z,1002.32
2023-11-25T04:03:42.439Z,1002.35
2023-11-25T04:04:42.539Z,1002.35
2023-11-25T04:05:42.527Z,1002.36
2023-11-25T04:06:42.552Z,1002.43
2023-11-25T04:07:42.694Z,1002.46
2023-11-25T04:08:42.643Z,1002.45
2023-11-25T04:09:42.683Z,1002.39
2023-11-25T04:10:42.752Z,1002.42
2023-11-25T04:11:42.779Z,1002.44
2023-11-25T04:12:42.827Z,1002.42
2023-11-25T04:13:42.969Z,1002.36
2023-11-25T04:14:42.916Z,1002.39
2023-11-25T04:15:42.970Z,1002.32
2023-11-25T04:16:43.056Z,1002.38
2023-11-25T04:17:43.224Z,1002.36
2023-11-25T04:18:43.109Z,1002.41
2023-11-25T04:19:43.176Z,1002.42
2023-11-25T04:20:43.305Z,1002.45
2023-11-25T04:21:43.260Z,1002.42
2023-11-25T04:22:43.347Z,1002.45
2023-11-25T04:23:43.335Z,1002.46
2023-11-25T04:24:43.382Z,1002.46
2023-11-25T04:25:43.439Z,1002.43
2023-11-25T04:26:43.485Z,1002.42
2023-11-25T04:27:43.516Z,1002.47
2023-11-25T04:28:43.661Z,1002.44
2023-11-25T04:29:43.621Z,1002.44
2023-11-25T04:30:43.661Z,1002.42
2023-11-25T04:31:43.752Z,1002.40
2023-11-25T04:32:43.849Z,1002.40
2023-11-25T04:33:43.801Z,1002.39
2023-11-25T04:34:43.895Z,1002.46
2023-11-25T04:35:43.893Z,1002.44
2023-11-25T04:36:43.939Z,1002.45
2023-11-25T04:37:44.095Z,1002.43
2023-11-25T04:38:44.034Z,1002.47
2023-11-25T04:39:44.087Z,1002.44
2023-11-25T04:40:44.214Z,1002.46
2023-11-25T04:41:44.200Z,1002.53
2023-11-25T04:42:44.523Z,1002.51
2023-11-25T04:43:44.279Z,1002.53
2023-11-25T04:44:44.317Z,1002.59
2023-11-25T04:45:44.364Z,1002.56
2023-11-25T04:46:44.481Z,1002.54
2023-11-25T04:47:44.512Z,1002.53
2023-11-25T04:48:44.495Z,1002.52
2023-11-25T04:49:44.593Z,1002.52
2023-11-25T04:50:46.336Z,1002.49
2023-11-25T04:51:44.636Z,1002.50
2023-11-25T04:52:44.881Z,1002.47
2023-11-25T04:53:44.757Z,1002.47
2023-11-25T04:54:44.777Z,1002.42
2023-11-25T04:55:44.866Z,1002.41
2023-11-25T04:56:44.869Z,1002.41
2023-11-25T04:57:44.949Z,1002.38
2023-11-25T04:58:45.019Z,1002.41
2023-11-25T04:59:45.009Z,1002.41
2023-11-25T05:00:45.083Z,1002.35
2023-11-25T05:01:45.225Z,1002.37
2023-11-25T05:02:45.251Z,1002.39
2023-11-25T05:03:45.262Z,1002.43
2023-11-25T05:04:45.259Z,1002.41
2023-11-25T05:05:45.293Z,1002.41
2023-11-25T05:06:45.837Z,1002.42
2023-11-25T05:07:45.473Z,1002.41
2023-11-25T05:08:45.427Z,1002.44
2023-11-25T05:09:45.496Z,1002.38
2023-11-25T05:10:45.537Z,1002.41
2023-11-25T05:11:45.567Z,1002.44
2023-11-25T05:12:45.619Z,1002.46
2023-11-25T05:14:45.713Z,1002.45
2023-11-25T05:15:45.754Z,1002.44
2023-11-25T05:16:45.946Z,1002.41
2023-11-25T05:17:45.910Z,1002.49
2023-11-25T05:18:45.892Z,1002.50
2023-11-25T05:19:45.968Z,1002.51
2023-11-25T05:20:45.985Z,1002.53
2023-11-25T05:21:46.056Z,1002.54
2023-11-25T05:22:46.420Z,1002.50
2023-11-25T05:23:46.130Z,1002.47
2023-11-25T05:24:46.171Z,1002.47
2023-11-25T05:25:46.264Z,1002.46
2023-11-25T05:26:46.262Z,1002.47
2023-11-25T05:27:46.317Z,1002.50
2023-11-25T05:28:46.432Z,1002.46
2023-11-25T05:29:46.412Z,1002.52
2023-11-25T05:31:46.524Z,1002.55
2023-11-25T05:32:46.586Z,1002.55
2023-11-25T05:33:46.589Z,1002.55
2023-11-25T05:34:46.704Z,1002.49
2023-11-25T05:35:46.681Z,1002.54
2023-11-25T05:36:46.725Z,1002.54
2023-11-25T05:37:47.020Z,1002.49
2023-11-25T05:38:46.833Z,1002.52
2023-11-25T05:39:46.933Z,1002.54
2023-11-25T05:40:46.973Z,1002.53
2023-11-25T05:41:46.987Z,1002.51
2023-11-25T05:42:47.008Z,1002.51
2023-11-25T05:43:47.092Z,1002.53
2023-11-25T05:44:47.095Z,1002.53
2023-11-25T05:45:47.149Z,1002.51
2023-11-25T05:46:47.287Z,1002.53
2023-11-25T05:47:47.275Z,1002.50
2023-11-25T05:48:47.279Z,1002.48
2023-11-25T05:50:47.371Z,1002.46
2023-11-25T05:51:47.418Z,1002.48
2023-11-25T05:52:47.507Z,1002.53
2023-11-25T05:53:47.511Z,1002.53
2023-11-25T05:54:47.556Z,1002.56
2023-11-25T05:55:47.657Z,1002.52
2023-11-25T05:56:47.670Z,1002.54
2023-11-25T05:57:47.922Z,1002.56
2023-11-25T05:58:47.786Z,1002.57
2023-11-25T05:59:47.786Z,1002.56
2023-11-25T06:00:47.833Z,1002.55
2023-11-25T06:01:47.956Z,1002.52
2023-11-25T06:02:47.926Z,1002.47
2023-11-25T06:03:48.053Z,1002.50
2023-11-25T06:04:48.116Z,1002.52
2023-11-25T06:05:48.071Z,1002.54
2023-11-25T06:06:48.111Z,1002.53
2023-11-25T06:07:48.193Z,1002.56
2023-11-25T06:08:48.202Z,1002.50
2023-11-25T06:09:48.248Z,1002.49
2023-11-25T06:10:48.670Z,1002.54
2023-11-25T06:11:48.341Z,1002.54
2023-11-25T06:12:48.441Z,1002.51
2023-11-25T06:13:48.503Z,1002.53
2023-11-25T06:14:48.510Z,1002.56
2023-11-25T06:15:48.567Z,1002.54
2023-11-25T06:16:48.592Z,1002.57
2023-11-25T06:17:48.719Z,1002.53
2023-11-25T06:18:48.706Z,1002.59
2023-11-25T06:19:48.817Z,1002.59
2023-11-25T06:20:48.808Z,1002.57
2023-11-25T06:21:48.816Z,1002.61
2023-11-25T06:22:49.066Z,1002.61
2023-11-25T06:23:48.895Z,1002.70
2023-11-25T06:24:48.948Z,1002.62
2023-11-25T06:25:49.052Z,1002.63
2023-11-25T06:26:49.060Z,1002.61
2023-11-25T06:27:49.079Z,1002.55
2023-11-25T06:28:49.197Z,1002.53
2023-11-25T06:29:49.195Z,1002.56
2023-11-25T06:30:49.229Z,1002.52
2023-11-25T06:31:49.462Z,1002.53
2023-11-25T06:32:49.336Z,1002.52
2023-11-25T06:33:49.422Z,1002.48
2023-11-25T06:34:49.439Z,1002.47
2023-11-25T06:35:49.450Z,1002.45
2023-11-25T06:36:49.497Z,1002.44
2023-11-25T06:37:49.680Z,1002.49
2023-11-25T06:38:49.622Z,1002.53
2023-11-25T06:39:49.630Z,1002.53
2023-11-25T06:40:49.702Z,1002.49
2023-11-25T06:41:49.725Z,1002.57
2023-11-25T06:42:49.773Z,1002.55
2023-11-25T06:43:49.851Z,1002.56
2023-11-25T06:44:49.861Z,1002.54
2023-11-25T06:45:49.936Z,1002.61
2023-11-25T06:46:50.059Z,1002.66
2023-11-25T06:47:50.017Z,1002.62
2023-11-25T06:48:50.050Z,1002.61
2023-11-25T06:49:50.109Z,1002.61
2023-11-25T06:50:50.138Z,1002.64
2023-11-25T06:51:50.184Z,1002.61
2023-11-25T06:52:50.322Z,1002.65
2023-11-25T06:53:50.278Z,1002.63
2023-11-25T06:54:50.322Z,1002.68
2023-11-25T06:55:50.402Z,1002.68
2023-11-25T06:56:50.416Z,1002.70
2023-11-25T06:57:50.849Z,1002.71
2023-11-25T06:58:50.540Z,1002.65
2023-11-25T06:59:50.576Z,1002.67
2023-11-25T07:00:50.653Z,1002.59
2023-11-25T07:01:50.784Z,1002.67
2023-11-25T07:02:50.735Z,1002.70
2023-11-25T07:03:50.741Z,1002.74
2023-11-25T07:04:50.879Z,1002.71
2023-11-25T07:05:50.830Z,1002.76
2023-11-25T07:06:50.875Z,1002.70
2023-11-25T07:07:50.967Z,1002.61
2023-11-25T07:08:50.975Z,1002.63
2023-11-25T07:09:51.021Z,1002.63
2023-11-25T07:10:51.120Z,1002.65
2023-11-25T07:11:51.109Z,1002.64
2023-11-25T07:12:51.152Z,1002.65
2023-11-25T07:13:51.243Z,1002.63
2023-11-25T07:14:51.260Z,1002.66
2023-11-25T07:15:51.290Z,1002.65
2023-11-25T07:16:51.386Z,1002.66
2023-11-25T07:17:51.481Z,1002.69
2023-11-25T07:18:51.434Z,1002.72
2023-11-25T07:19:51.533Z,1002.76
2023-11-25T07:20:54.198Z,1002.73
2023-11-25T07:21:51.585Z,1002.74
2023-11-25T07:22:51.653Z,1002.75
2023-11-25T07:23:51.661Z,1002.73
2023-11-25T07:24:51.708Z,1002.73
2023-11-25T07:25:51.765Z,1002.71
2023-11-25T07:26:51.803Z,1002.68
2023-11-25T07:27:51.853Z,1002.67
2023-11-25T07:28:51.945Z,1002.73
2023-11-25T07:29:51.943Z,1002.71
2023-11-25T07:30:52.014Z,1002.72
2023-11-25T07:31:52.096Z,1002.73
2023-11-25T07:32:52.150Z,1002.77
2023-11-25T07:33:52.145Z,1002.80
2023-11-25T07:34:52.197Z,1002.74
2023-11-25T07:35:52.216Z,1002.77
2023-11-25T07:36:52.268Z,1002.72
2023-11-25T07:37:52.332Z,1002.76
2023-11-25T07:38:52.359Z,1002.73
2023-11-25T07:39:52.404Z,1002.74
2023-11-25T07:40:52.509Z,1002.79
2023-11-25T07:41:52.499Z,1002.78
2023-11-25T07:42:52.549Z,1002.76
2023-11-25T07:43:52.619Z,1002.71
2023-11-25T07:44:52.639Z,1002.68
2023-11-25T07:45:52.697Z,1002.64
2023-11-25T07:46:52.797Z,1002.70
2023-11-25T07:47:52.810Z,1002.74
2023-11-25T07:48:52.839Z,1002.74
2023-11-25T07:49:52.948Z,1002.78
2023-11-25T07:50:52.919Z,1002.73
2023-11-25T07:51:52.972Z,1002.72
2023-11-25T07:52:53.147Z,1002.75
2023-11-25T07:53:53.061Z,1002.76
2023-11-25T07:54:53.104Z,1002.73
2023-11-25T07:55:53.262Z,1002.78
2023-11-25T07:56:53.202Z,1002.80
2023-11-25T07:57:53.244Z,1002.84
2023-11-25T07:58:53.368Z,1002.87
2023-11-25T07:59:53.337Z,1002.85
2023-11-25T08:00:53.382Z,1002.85
2023-11-25T08:01:53.539Z,1002.90
2023-11-25T08:02:53.640Z,1002.90
2023-11-25T08:03:53.601Z,1002.95
2023-11-25T08:04:53.650Z,1002.95
2023-11-25T08:05:53.640Z,1002.93
2023-11-25T08:06:53.670Z,1002.95
2023-11-25T08:07:53.852Z,1002.95
2023-11-25T08:08:53.778Z,1002.91
2023-11-25T08:09:53.812Z,1003.01
2023-11-25T08:10:53.877Z,1002.98
2023-11-25T08:11:53.898Z,1003.01
2023-11-25T08:12:53.949Z,1002.99
2023-11-25T08:13:54.070Z,1002.98
2023-11-25T08:14:54.074Z,1003.00
2023-11-25T08:15:54.124Z,1003.03
2023-11-25T08:16:54.162Z,1003.04
2023-11-25T08:17:54.219Z,1003.02
2023-11-25T08:18:54.229Z,1002.99
2023-11-25T08:19:54.280Z,1003.01
2023-11-25T08:20:54.330Z,1002.99
2023-11-25T08:21:54.398Z,1003.02
2023-11-25T08:22:54.593Z,1003.02
2023-11-25T08:23:54.465Z,1003.08
2023-11-25T08:24:54.512Z,1003.04
2023-11-25T08:25:54.587Z,1003.04
2023-11-25T08:26:54.601Z,1003.09
2023-11-25T08:27:54.657Z,1003.03
2023-11-25T08:28:54.775Z,1003.03
2023-11-25T08:29:54.744Z,1002.99
2023-11-25T08:30:54.800Z,1002.97
2023-11-25T08:31:54.957Z,1002.99
2023-11-25T08:32:54.961Z,1003.01
2023-11-25T08:33:54.935Z,1003.02
2023-11-25T08:34:55.025Z,1003.02
2023-11-25T08:35:55.030Z,1003.01
2023-11-25T08:36:55.200Z,1003.10
2023-11-25T08:37:55.218Z,1003.08
2023-11-25T08:38:55.173Z,1003.08
2023-11-25T08:39:55.220Z,1003.05
2023-11-25T08:40:55.300Z,1003.04
2023-11-25T08:41:55.342Z,1002.99
2023-11-25T08:42:55.364Z,1002.98
2023-11-25T08:43:55.445Z,1002.96
2023-11-25T08:44:55.458Z,1002.95
2023-11-25T08:45:55.525Z,1002.92
2023-11-25T08:46:55.583Z,1002.97
2023-11-25T08:47:55.664Z,1002.97
2023-11-25T08:48:55.647Z,1003.00
2023-11-25T08:49:55.750Z,1003.04
2023-11-25T08:50:55.738Z,1003.07
2023-11-25T08:51:55.787Z,1003.02
2023-11-25T08:52:55.950Z,1003.02
2023-11-25T08:53:55.905Z,1003.02
2023-11-25T08:54:55.937Z,1002.99
2023-11-25T08:55:56.017Z,1002.93
2023-11-25T08:56:56.102Z,1002.92
2023-11-25T08:57:56.070Z,1002.87
2023-11-25T08:59:04.758Z,1002.84
2023-11-25T08:59:56.163Z,1002.81
2023-11-25T09:00:56.210Z,1002.76
2023-11-25T09:01:56.317Z,1002.74
2023-11-25T09:02:56.381Z,1002.73
2023-11-25T09:03:56.368Z,1002.65
2023-11-25T09:05:03.954Z,1002.63
2023-11-25T09:05:56.448Z,1002.60
2023-11-25T09:06:56.501Z,1002.57
2023-11-25T09:07:57.235Z,1002.57
2023-11-25T09:08:56.588Z,1002.60
2023-11-25T09:09:56.661Z,1002.59
2023-11-25T09:10:56.705Z,1002.59
2023-11-25T09:11:56.735Z,1002.60
2023-11-25T09:12:56.776Z,1002.62
2023-11-25T09:13:56.917Z,1002.62
2023-11-25T09:14:56.872Z,1002.63
2023-11-25T09:15:56.953Z,1002.66
2023-11-25T09:16:57.004Z,1002.67
2023-11-25T09:17:57.058Z,1002.58
2023-11-25T09:19:00.401Z,1002.61
2023-11-25T09:19:57.183Z,1002.60
2023-11-25T09:20:57.158Z,1002.67
2023-11-25T09:21:57.206Z,1002.65
2023-11-25T09:22:57.353Z,1002.69
2023-11-25T09:23:57.310Z,1002.70
2023-11-25T09:24:57.351Z,1002.70
2023-11-25T09:25:57.454Z,1002.75
2023-11-25T09:26:57.457Z,1002.70
2023-11-25T09:27:57.494Z,1002.70
2023-11-25T09:28:57.573Z,1002.72
2023-11-25T09:30:45.277Z,1002.67
2023-11-25T09:31:45.333Z,1002.74
2023-11-25T09:32:45.615Z,1002.71
2023-11-25T09:33:45.440Z,1002.69
2023-11-25T09:34:45.498Z,1002.69
2023-11-25T09:35:45.520Z,1002.71
2023-11-25T09:36:45.570Z,1002.71
2023-11-25T09:37:45.689Z,1002.67
2023-11-25T09:38:45.675Z,1002.71
2023-11-25T09:39:45.716Z,1002.73
2023-11-25T09:40:45.794Z,1002.69
2023-11-25T09:41:45.833Z,1002.71
2023-11-25T09:42:45.871Z,1002.75
2023-11-25T09:43:45.939Z,1002.70
2023-11-25T09:44:45.959Z,1002.71
2023-11-25T09:45:46.023Z,1002.73
2023-11-25T09:46:46.111Z,1002.78
2023-11-25T09:47:46.585Z,1002.73
2023-11-25T09:48:46.156Z,1002.73
2023-11-25T09:49:46.285Z,1002.73
2023-11-25T09:50:46.255Z,1002.76
2023-11-25T09:51:46.322Z,1002.78
2023-11-25T09:52:46.411Z,1002.81
2023-11-25T09:53:46.445Z,1002.84
2023-11-25T09:54:46.449Z,1002.80
2023-11-25T09:55:46.527Z,1002.75
2023-11-25T09:56:46.551Z,1002.72
2023-11-25T09:57:46.624Z,1002.74
2023-11-25T09:58:46.673Z,1002.72
2023-11-25T09:59:46.705Z,1002.71
2023-11-25T10:00:46.748Z,1002.69
2023-11-25T10:01:46.899Z,1002.63
2023-11-25T10:02:46.975Z,1002.63
2023-11-25T10:03:47.076Z,1002.61
2023-11-25T10:04:46.947Z,1002.58
2023-11-25T10:05:46.992Z,1002.56
2023-11-25T10:06:47.046Z,1002.58
2023-11-25T10:07:47.115Z,1002.59
2023-11-25T10:08:47.141Z,1002.56
2023-11-25T10:09:47.188Z,1002.52
2023-11-25T10:10:47.274Z,1002.52
2023-11-25T10:11:47.286Z,1002.53
2023-11-25T10:12:47.350Z,1002.50
2023-11-25T10:13:47.419Z,1002.49
2023-11-25T10:14:47.484Z,1002.51
2023-11-25T10:15:47.643Z,1002.48
2023-11-25T10:16:47.552Z,1002.50
2023-11-25T10:17:47.601Z,1002.53
2023-11-25T10:18:47.637Z,1002.48
2023-11-25T10:19:47.712Z,1002.41
2023-11-25T10:20:47.731Z,1002.35
2023-11-25T10:21:47.776Z,1002.35
2023-11-25T10:22:47.843Z,1002.37
2023-11-25T10:23:47.875Z,1002.42
2023-11-25T10:24:47.932Z,1002.44
2023-11-25T10:25:47.980Z,1002.43
2023-11-25T10:26:48.032Z,1002.42
2023-11-25T10:27:48.093Z,1002.41
2023-11-25T10:28:48.243Z,1002.39
2023-11-25T10:29:48.196Z,1002.39
2023-11-25T10:30:48.224Z,1002.36
2023-11-25T10:31:48.297Z,1002.36
2023-11-25T10:32:48.350Z,1002.41
2023-11-25T10:33:48.464Z,1002.41
2023-11-25T10:34:48.483Z,1002.38
2023-11-25T10:35:48.471Z,1002.34
2023-11-25T10:36:48.514Z,1002.36
2023-11-25T10:37:48.624Z,1002.38
2023-11-25T10:38:48.661Z,1002.37
2023-11-25T10:39:48.666Z,1002.37
2023-11-25T10:40:48.736Z,1002.36
2023-11-25T10:41:48.763Z,1002.36
2023-11-25T10:42:48.816Z,1002.38
2023-11-25T10:43:48.937Z,1002.28
2023-11-25T10:44:48.912Z,1002.30
2023-11-25T10:45:49.015Z,1002.29
2023-11-25T10:46:49.289Z,1002.29
2023-11-25T10:47:49.080Z,1002.27
2023-11-25T10:48:49.108Z,1002.28
2023-11-25T10:49:49.171Z,1002.27
2023-11-25T10:50:49.208Z,1002.26
2023-11-25T10:51:49.261Z,1002.21
2023-11-25T10:52:49.332Z,1002.26
2023-11-25T10:53:49.356Z,1002.26
2023-11-25T10:54:49.408Z,1002.24
2023-11-25T10:55:49.501Z,1002.22
2023-11-25T10:56:49.577Z,1002.23
2023-11-25T10:57:49.680Z,1002.21
2023-11-25T10:58:49.612Z,1002.16
2023-11-25T10:59:51.544Z,1002.18
2023-11-25T11:00:49.705Z,1002.19
2023-11-25T11:01:49.891Z,1002.17
2023-11-25T11:02:49.899Z,1002.18
2023-11-25T11:03:49.862Z,1002.15
2023-11-25T11:04:49.906Z,1002.19
2023-11-25T11:05:49.963Z,1002.14
2023-11-25T11:06:50.015Z,1002.14
2023-11-25T11:07:50.123Z,1002.18
2023-11-25T11:08:50.102Z,1002.16
2023-11-25T11:09:50.150Z,1002.13
2023-11-25T11:10:50.240Z,1002.15
2023-11-25T11:11:50.255Z,1002.17
2023-11-25T11:12:50.301Z,1002.10
2023-11-25T11:13:50.385Z,1002.19
2023-11-25T11:14:50.401Z,1002.20
2023-11-25T11:15:50.448Z,1002.16
2023-11-25T11:16:50.518Z,1002.26
2023-11-25T11:17:50.594Z,1002.23
2023-11-25T11:18:50.660Z,1002.17
2023-11-25T11:19:50.649Z,1002.22
2023-11-25T11:20:50.704Z,1002.21
2023-11-25T11:21:50.761Z,1002.22
2023-11-25T11:22:50.842Z,1002.20
2023-11-25T11:23:50.848Z,1002.18
2023-11-25T11:24:50.904Z,1002.15
2023-11-25T11:25:50.962Z,1002.17
2023-11-25T11:26:50.999Z,1002.13
2023-11-25T11:27:51.049Z,1002.06
2023-11-25T11:28:51.211Z,1002.08
2023-11-25T11:29:51.166Z,1002.05
2023-11-25T11:30:51.200Z,1002.15
2023-11-25T11:31:51.333Z,1002.16
2023-11-25T11:32:51.401Z,1002.25
2023-11-25T11:33:51.380Z,1002.22
2023-11-25T11:34:51.455Z,1002.17
2023-11-25T11:35:51.464Z,1002.15
2023-11-25T11:36:51.503Z,1002.23
2023-11-25T11:37:51.654Z,1002.24
2023-11-25T11:38:51.611Z,1002.30
2023-11-25T11:39:51.669Z,1002.18
2023-11-25T11:40:51.709Z,1002.09
2023-11-25T11:41:51.763Z,1002.07
2023-11-25T11:42:51.813Z,1002.10
2023-11-25T11:43:51.900Z,1002.14
2023-11-25T11:44:51.913Z,1002.36
2023-11-25T11:45:51.990Z,1002.10
2023-11-25T11:46:52.065Z,1002.13
2023-11-25T11:47:52.127Z,1002.06
2023-11-25T11:48:52.114Z,1002.01
2023-11-25T11:49:52.236Z,1002.08
2023-11-25T11:50:52.228Z,1002.04
2023-11-25T11:51:52.270Z,1002.15
2023-11-25T11:52:52.348Z,1002.06
2023-11-25T11:53:52.378Z,1002.06
2023-11-25T11:54:52.419Z,1002.09
2023-11-25T11:55:52.486Z,1002.34
2023-11-25T11:56:52.525Z,1002.32
2023-11-25T11:57:52.577Z,1002.41
2023-11-25T11:58:52.655Z,1002.03
2023-11-25T11:59:52.680Z,1001.99
2023-11-25T12:00:52.730Z,1001.92
2023-11-25T12:01:52.825Z,1001.92
2023-11-25T12:02:52.828Z,1001.82
2023-11-25T12:03:52.960Z,1001.85
2023-11-25T12:04:53.112Z,1001.96
2023-11-25T12:05:53.217Z,1002.00
2023-11-25T12:06:53.044Z,1001.98
2023-11-25T12:07:53.113Z,1002.21
2023-11-25T12:08:53.140Z,1002.02
2023-11-25T12:09:53.192Z,1002.41
2023-11-25T12:10:53.312Z,1002.01
2023-11-25T12:11:53.294Z,1001.85